Time;durP1;ratioP1;P1;durP2;ratioP2;P2;SDS_P1;SDS_P2;PMS_P1;PMS_P2;Temp;Humidity;BMP_temperature;BMP_pressure;BME280_temperature;BME280_humidity;BME280_pressure;Samples;Min_cycle;Max_cycle;Signal;HPM_P1;HPM_P2
2023/03/20 00:00:46;;;;;;;1.53;1.43;;;10.70;97.30;;;;;;5027398;28;20450;-82
2023/03/20 00:03:36;;;;;;;1.30;1.20;;;10.60;97.30;;;;;;5033860;28;20181;-85
2023/03/20 00:06:36;;;;;;;1.50;1.40;;;10.70;97.30;;;;;;5026028;28;20426;-85
2023/03/20 00:09:37;;;;;;;1.30;1.20;;;10.70;97.30;;;;;;5050731;22;20511;-84
2023/03/20 00:13:05;;;;;;;1.20;1.10;;;10.70;97.30;;;;;;5053382;28;20516;-85
2023/03/20 00:18:57;;;;;;;1.60;1.50;;;10.60;97.30;;;;;;5085213;22;20517;-84
2023/03/20 00:21:26;;;;;;;2.83;2.63;;;10.60;97.30;;;;;;5066586;28;20475;-84
2023/03/20 00:23:54;;;;;;;1.23;1.13;;;10.60;97.30;;;;;;5070185;28;20412;-84
2023/03/20 00:26:25;;;;;;;1.20;1.10;;;10.60;97.30;;;;;;5073393;28;20922;-85
2023/03/20 00:28:51;;;;;;;3.50;1.37;;;10.60;97.30;;;;;;5084949;28;20452;-85
2023/03/20 00:31:29;;;;;;;1.57;1.30;;;10.50;97.30;;;;;;5084043;28;20421;-84
2023/03/20 00:34:09;;;;;;;1.20;1.10;;;10.50;97.30;;;;;;5060064;28;20269;-84
2023/03/20 00:36:37;;;;;;;1.20;1.10;;;10.50;97.30;;;;;;5076700;28;20441;-84
2023/03/20 00:39:06;;;;;;;3.47;1.97;;;10.50;97.30;;;;;;5049707;22;20521;-85
2023/03/20 00:41:46;;;;;;;6.50;2.10;;;10.50;97.30;;;;;;5033406;28;20466;-84
2023/03/20 00:45:06;;;;;;;2.13;1.97;;;10.50;97.30;;;;;;5059440;28;20449;-85
2023/03/20 00:48:07;;;;;;;2.17;2.00;;;10.50;97.30;;;;;;4961150;28;20659;-83
2023/03/20 00:51:26;;;;;;;2.53;2.33;;;10.50;97.30;;;;;;4931634;29;20416;-84
2023/03/20 00:53:54;;;;;;;1.50;1.40;;;10.50;97.30;;;;;;4974525;28;20855;-85
2023/03/20 00:56:39;;;;;;;2.47;2.27;;;10.40;97.30;;;;;;4962804;28;20497;-84
2023/03/20 00:59:05;;;;;;;1.00;0.90;;;10.40;97.30;;;;;;5031042;28;20447;-85
2023/03/20 01:01:31;;;;;;;1.47;1.40;;;10.30;97.30;;;;;;5032939;28;20504;-85
2023/03/20 01:03:57;;;;;;;1.50;1.40;;;10.30;97.30;;;;;;5032887;28;20183;-85
2023/03/20 01:06:23;;;;;;;5.63;1.97;;;10.20;97.30;;;;;;5033340;28;20941;-85
2023/03/20 01:08:48;;;;;;;1.60;1.50;;;10.20;97.30;;;;;;5032907;28;20499;-85
2023/03/20 01:11:19;;;;;;;1.83;1.70;;;10.20;97.30;;;;;;5032571;28;20223;-85
2023/03/20 01:13:44;;;;;;;1.57;1.47;;;10.20;97.30;;;;;;5032732;28;20283;-85
2023/03/20 01:16:21;;;;;;;1.87;1.80;;;10.20;97.30;;;;;;5032414;28;20514;-85
2023/03/20 01:18:47;;;;;;;1.50;1.40;;;10.20;97.30;;;;;;5032533;28;20244;-85
2023/03/20 01:21:12;;;;;;;9.57;2.97;;;10.20;97.30;;;;;;5035488;28;20457;-85
2023/03/20 01:23:38;;;;;;;2.37;1.83;;;10.20;97.30;;;;;;5035741;28;20632;-85
2023/03/20 01:26:10;;;;;;;1.53;1.43;;;10.20;97.30;;;;;;5049512;28;20662;-82
2023/03/20 01:28:35;;;;;;;1.50;1.40;;;10.20;97.30;;;;;;5039946;28;20206;-83
2023/03/20 01:31:01;;;;;;;1.47;1.37;;;10.20;97.30;;;;;;5040217;28;20426;-80
2023/03/20 01:33:28;;;;;;;1.40;1.30;;;10.20;97.30;;;;;;5056212;28;20184;-80
2023/03/20 01:35:53;;;;;;;1.90;1.80;;;10.10;97.30;;;;;;5053534;28;20173;-82
2023/03/20 01:38:22;;;;;;;2.17;2.00;;;10.00;97.30;;;;;;5039279;28;20879;-84
2023/03/20 01:41:05;;;;;;;2.77;2.57;;;10.00;97.30;;;;;;5043394;28;20213;-82
2023/03/20 01:43:31;;;;;;;2.03;1.90;;;10.00;97.30;;;;;;5054673;28;20497;-84
2023/03/20 01:46:21;;;;;;;1.30;1.20;;;10.00;97.30;;;;;;5045591;28;20445;-82
2023/03/20 01:48:49;;;;;;;1.77;1.70;;;10.00;97.30;;;;;;5035515;28;20433;-85
2023/03/20 01:51:16;;;;;;;3.00;2.00;;;9.90;97.30;;;;;;5038037;28;20617;-82
2023/03/20 01:53:44;;;;;;;2.13;1.97;;;9.90;97.30;;;;;;5033150;28;20418;-84
2023/03/20 01:56:13;;;;;;;2.87;2.67;;;9.90;97.30;;;;;;5035400;28;20426;-83
2023/03/20 01:58:43;;;;;;;1.97;1.80;;;9.90;97.30;;;;;;5054810;28;20433;-82
2023/03/20 02:01:12;;;;;;;5.87;2.47;;;9.90;97.30;;;;;;5053815;28;20478;-82
2023/03/20 02:03:38;;;;;;;2.47;2.27;;;9.90;97.30;;;;;;5036390;28;20484;-83
2023/03/20 02:06:05;;;;;;;2.20;1.87;;;9.90;97.30;;;;;;5031571;28;20419;-82
2023/03/20 02:08:35;;;;;;;1.70;1.60;;;9.90;97.30;;;;;;5036096;28;20552;-83
2023/03/20 02:11:02;;;;;;;1.57;1.47;;;9.90;97.30;;;;;;5037359;28;20462;-82
2023/03/20 02:13:30;;;;;;;1.80;1.67;;;9.90;97.30;;;;;;5035198;28;20460;-84
2023/03/20 02:16:02;;;;;;;1.87;1.70;;;9.90;97.30;;;;;;5037188;28;20970;-84
2023/03/20 02:18:29;;;;;;;6.90;2.77;;;9.90;97.30;;;;;;5038887;28;20437;-81
2023/03/20 02:21:00;;;;;;;1.50;1.40;;;9.90;97.30;;;;;;5037635;28;20549;-84
2023/03/20 02:23:44;;;;;;;2.23;2.07;;;9.80;97.30;;;;;;5036048;28;20449;-83
2023/03/20 02:26:34;;;;;;;5.80;2.50;;;9.80;97.30;;;;;;5037767;28;20453;-82
2023/03/20 02:29:33;;;;;;;1.80;1.70;;;9.80;97.30;;;;;;5035588;28;20568;-81
2023/03/20 02:32:16;;;;;;;1.63;1.53;;;9.80;97.30;;;;;;5033654;28;20949;-81
2023/03/20 02:34:59;;;;;;;4.30;2.37;;;9.70;97.30;;;;;;5037916;28;20424;-83
2023/03/20 02:37:43;;;;;;;1.60;1.50;;;9.70;97.30;;;;;;5026519;28;20434;-81
2023/03/20 02:40:26;;;;;;;2.53;1.97;;;9.70;97.30;;;;;;5039008;28;20859;-80
2023/03/20 02:43:04;;;;;;;4.00;1.97;;;9.70;97.30;;;;;;5040286;28;20422;-84
2023/03/20 02:45:39;;;;;;;21.70;2.30;;;9.60;97.30;;;;;;5039395;28;20947;-82
2023/03/20 02:48:24;;;;;;;1.53;1.47;;;9.60;97.30;;;;;;5041374;28;20422;-81
2023/03/20 02:50:58;;;;;;;1.70;1.60;;;9.60;97.30;;;;;;5040143;28;20488;-84
2023/03/20 02:53:44;;;;;;;1.77;1.77;;;9.60;97.30;;;;;;5026148;28;20687;-81
2023/03/20 02:56:31;;;;;;;8.90;3.60;;;9.60;97.30;;;;;;5035027;28;20468;-81
2023/03/20 02:59:24;;;;;;;1.80;1.70;;;9.60;97.30;;;;;;5043090;28;20453;-82
2023/03/20 03:01:56;;;;;;;2.37;2.20;;;9.60;97.30;;;;;;5040698;28;20457;-83
2023/03/20 03:04:26;;;;;;;1.33;1.23;;;9.60;97.30;;;;;;5039605;28;20434;-82
2023/03/20 03:06:55;;;;;;;2.70;1.70;;;9.60;97.30;;;;;;5035212;28;20419;-81
2023/03/20 03:09:29;;;;;;;2.03;1.80;;;9.70;97.30;;;;;;5043648;28;20463;-83
2023/03/20 03:12:18;;;;;;;1.97;1.37;;;9.70;97.30;;;;;;5044558;28;20429;-83
2023/03/20 03:14:51;;;;;;;1.37;1.03;;;9.70;97.30;;;;;;5034441;28;20506;-82
2023/03/20 03:17:19;;;;;;;7.77;2.33;;;9.70;97.30;;;;;;5040754;28;20431;-81
2023/03/20 03:19:48;;;;;;;1.90;1.80;;;9.70;97.30;;;;;;5040203;28;20425;-82
2023/03/20 03:22:17;;;;;;;3.80;3.53;;;9.70;97.30;;;;;;5039964;28;20512;-80
2023/03/20 03:25:01;;;;;;;2.07;1.73;;;9.70;97.30;;;;;;5040923;28;20406;-84
2023/03/20 03:27:35;;;;;;;2.00;1.93;;;9.70;97.30;;;;;;5041394;28;20445;-80
2023/03/20 03:30:13;;;;;;;2.50;2.30;;;9.70;97.30;;;;;;5038022;28;20415;-85
2023/03/20 03:32:47;;;;;;;2.13;1.97;;;9.70;97.30;;;;;;5050654;28;20526;-82
2023/03/20 03:35:20;;;;;;;2.30;2.10;;;9.60;97.30;;;;;;5039892;28;20426;-82
2023/03/20 03:38:01;;;;;;;3.13;2.93;;;9.70;97.30;;;;;;5029934;28;20477;-84
2023/03/20 03:40:37;;;;;;;1.77;1.70;;;9.70;97.30;;;;;;5038237;28;20480;-84
2023/03/20 03:43:15;;;;;;;1.70;1.60;;;9.70;97.30;;;;;;5050663;28;20438;-82
2023/03/20 03:45:58;;;;;;;3.63;1.93;;;9.70;97.30;;;;;;5055778;28;20482;-85
2023/03/20 03:48:37;;;;;;;2.07;1.93;;;9.70;97.30;;;;;;5037221;28;20430;-84
2023/03/20 03:51:08;;;;;;;2.13;1.80;;;9.60;97.30;;;;;;5033751;28;20958;-84
2023/03/20 03:53:40;;;;;;;1.97;1.87;;;9.60;97.30;;;;;;5039398;28;20414;-83
2023/03/20 03:56:09;;;;;;;2.00;1.40;;;9.60;97.30;;;;;;5038337;28;20511;-82
2023/03/20 03:58:41;;;;;;;3.07;2.30;;;9.70;97.30;;;;;;5039575;28;20545;-81
2023/03/20 04:01:12;;;;;;;3.83;2.10;;;9.70;97.30;;;;;;5036141;28;20848;-82
2023/03/20 04:03:50;;;;;;;5.43;1.70;;;9.60;97.30;;;;;;5036452;28;20426;-81
2023/03/20 04:06:17;;;;;;;6.27;2.00;;;9.70;97.30;;;;;;5032782;28;20433;-79
2023/03/20 04:08:45;;;;;;;6.40;2.30;;;9.70;97.30;;;;;;5034421;28;20440;-82
2023/03/20 04:11:23;;;;;;;10.90;2.90;;;9.70;97.30;;;;;;5035150;28;20518;-84
2023/03/20 04:13:50;;;;;;;1.67;1.63;;;9.70;97.30;;;;;;5034822;28;20432;-84
2023/03/20 04:16:17;;;;;;;2.13;1.70;;;9.70;97.30;;;;;;5030646;28;20431;-84
2023/03/20 04:18:44;;;;;;;9.67;4.67;;;9.70;97.30;;;;;;5037264;28;20480;-84
2023/03/20 04:21:10;;;;;;;3.30;3.10;;;9.70;97.30;;;;;;5036577;28;20888;-81
2023/03/20 04:23:36;;;;;;;20.70;3.47;;;9.70;97.30;;;;;;5037951;28;20411;-82
2023/03/20 04:26:02;;;;;;;3.00;2.87;;;9.70;97.30;;;;;;5036820;28;20422;-85
2023/03/20 04:28:27;;;;;;;3.00;2.10;;;9.70;97.30;;;;;;5035075;28;20215;-84
2023/03/20 04:30:55;;;;;;;2.90;1.67;;;9.70;97.30;;;;;;5035861;28;20426;-84
2023/03/20 04:33:23;;;;;;;1.80;1.70;;;9.70;97.30;;;;;;5035720;28;20882;-83
2023/03/20 04:35:51;;;;;;;3.83;3.00;;;9.70;97.30;;;;;;5054944;28;20418;-86
2023/03/20 04:38:17;;;;;;;1.27;1.23;;;9.70;97.30;;;;;;5033712;28;20471;-85
2023/03/20 04:40:44;;;;;;;4.07;1.90;;;9.70;97.30;;;;;;5030127;28;20458;-83
2023/03/20 04:43:09;;;;;;;1.50;1.40;;;9.70;97.30;;;;;;5027626;28;20180;-83
2023/03/20 04:45:35;;;;;;;3.37;3.00;;;9.70;97.30;;;;;;5035735;28;20419;-83
2023/03/20 04:48:01;;;;;;;2.20;2.00;;;9.70;97.30;;;;;;5042954;28;20206;-83
2023/03/20 04:50:26;;;;;;;1.70;1.60;;;9.70;97.30;;;;;;5052089;28;20173;-86
2023/03/20 04:52:52;;;;;;;1.50;1.40;;;9.60;97.30;;;;;;5035818;28;20450;-82
2023/03/20 04:55:18;;;;;;;2.73;2.53;;;9.60;97.30;;;;;;5045127;28;20194;-83
2023/03/20 04:57:44;;;;;;;1.30;1.20;;;9.70;97.30;;;;;;5035594;28;20287;-85
2023/03/20 05:00:10;;;;;;;4.33;1.87;;;9.70;97.30;;;;;;5036399;28;20266;-84
2023/03/20 05:02:36;;;;;;;1.63;1.53;;;9.60;97.30;;;;;;5035525;28;20455;-82
2023/03/20 05:05:01;;;;;;;2.13;1.60;;;9.60;97.30;;;;;;5034152;28;21020;-83
2023/03/20 05:07:27;;;;;;;2.67;2.47;;;9.60;97.30;;;;;;5056619;28;20253;-83
2023/03/20 05:09:52;;;;;;;2.40;2.07;;;9.60;97.30;;;;;;5046271;28;20180;-84
2023/03/20 05:12:18;;;;;;;2.00;1.90;;;9.70;97.30;;;;;;5041954;28;20192;-82
2023/03/20 05:14:43;;;;;;;7.07;4.77;;;9.70;97.30;;;;;;5049293;28;20198;-83
2023/03/20 05:17:09;;;;;;;5.30;2.13;;;9.70;97.30;;;;;;5034166;28;20180;-82
2023/03/20 05:19:35;;;;;;;3.73;2.70;;;9.70;97.30;;;;;;5034534;28;20187;-83
2023/03/20 05:22:01;;;;;;;2.50;2.30;;;9.70;97.30;;;;;;5052833;28;20667;-82
2023/03/20 05:24:27;;;;;;;1.93;1.83;;;9.70;97.30;;;;;;5042244;28;20433;-82
2023/03/20 05:26:53;;;;;;;4.10;2.27;;;9.70;97.30;;;;;;5039756;28;20251;-83
2023/03/20 05:29:19;;;;;;;1.90;1.47;;;9.70;97.30;;;;;;5038813;28;20577;-86
2023/03/20 05:31:45;;;;;;;6.30;3.37;;;9.70;97.30;;;;;;5032097;28;20271;-82
2023/03/20 05:34:10;;;;;;;1.87;1.70;;;9.70;97.30;;;;;;5033975;28;20172;-82
2023/03/20 05:36:36;;;;;;;3.50;2.00;;;9.70;97.30;;;;;;5054360;28;20550;-82
2023/03/20 05:39:01;;;;;;;2.80;2.60;;;9.70;97.30;;;;;;5035558;28;20609;-84
2023/03/20 05:41:27;;;;;;;2.07;1.93;;;9.70;97.30;;;;;;5036509;28;20203;-84
2023/03/20 05:43:54;;;;;;;3.53;2.60;;;9.80;97.30;;;;;;5034226;28;20264;-86
2023/03/20 05:46:26;;;;;;;15.93;4.07;;;9.80;97.30;;;;;;5037032;28;20180;-84
2023/03/20 05:48:51;;;;;;;2.47;2.30;;;9.80;97.30;;;;;;5038694;28;20732;-83
2023/03/20 05:51:17;;;;;;;1.90;1.80;;;9.80;97.30;;;;;;5035599;28;20425;-84
2023/03/20 05:53:42;;;;;;;2.13;1.97;;;9.80;97.30;;;;;;5036884;28;20183;-85
2023/03/20 05:56:08;;;;;;;8.10;2.43;;;9.80;97.30;;;;;;5045767;28;20175;-84
2023/03/20 05:58:35;;;;;;;2.30;1.73;;;9.90;97.30;;;;;;5036659;28;20211;-81
2023/03/20 06:01:00;;;;;;;4.03;2.37;;;9.90;97.30;;;;;;5037572;28;20218;-83
2023/03/20 06:03:26;;;;;;;2.63;2.43;;;9.90;97.30;;;;;;5038201;28;20407;-82
2023/03/20 06:05:51;;;;;;;2.07;1.93;;;9.90;97.30;;;;;;5038785;28;20168;-83
2023/03/20 06:08:17;;;;;;;2.37;2.23;;;9.90;97.30;;;;;;5037686;28;20769;-83
2023/03/20 06:10:42;;;;;;;2.57;2.37;;;10.00;97.30;;;;;;5042236;28;20172;-83
2023/03/20 06:13:08;;;;;;;2.33;2.17;;;10.00;97.30;;;;;;5056172;28;20188;-82
2023/03/20 06:15:34;;;;;;;2.03;1.80;;;10.00;97.30;;;;;;5044045;28;20210;-82
2023/03/20 06:17:59;;;;;;;3.93;2.37;;;10.00;97.30;;;;;;5043607;28;20223;-83
2023/03/20 06:20:25;;;;;;;3.60;3.37;;;10.00;97.30;;;;;;5044872;28;20808;-83
2023/03/20 06:22:51;;;;;;;2.00;1.90;;;10.00;97.30;;;;;;5071875;28;20184;-82
2023/03/20 06:25:17;;;;;;;2.87;2.73;;;10.10;97.30;;;;;;5044042;28;20414;-83
2023/03/20 06:27:45;;;;;;;6.77;6.00;;;10.10;97.30;;;;;;5045047;28;20191;-82
2023/03/20 06:30:11;;;;;;;1.67;1.57;;;10.10;97.30;;;;;;5043400;28;20422;-84
2023/03/20 06:32:37;;;;;;;2.60;2.40;;;10.10;97.30;;;;;;5044454;28;20414;-83
2023/03/20 06:35:04;;;;;;;4.00;2.50;;;10.20;97.30;;;;;;5047642;28;20442;-82
2023/03/20 06:37:30;;;;;;;3.80;2.80;;;10.20;97.30;;;;;;5047277;28;20253;-82
2023/03/20 06:39:56;;;;;;;3.43;1.90;;;10.20;97.30;;;;;;5030269;28;20510;-82
2023/03/20 06:42:21;;;;;;;3.13;2.97;;;10.30;97.30;;;;;;5059833;28;20458;-82
2023/03/20 06:44:46;;;;;;;3.20;3.00;;;10.30;97.30;;;;;;5039845;28;20663;-84
2023/03/20 06:47:18;;;;;;;3.53;3.33;;;10.30;97.30;;;;;;5033983;28;20172;-82
2023/03/20 06:49:48;;;;;;;7.53;4.60;;;10.30;97.30;;;;;;5015962;28;20179;-82
2023/03/20 06:52:26;;;;;;;10.03;3.57;;;10.30;97.30;;;;;;5019649;28;20968;-85
2023/03/20 06:55:17;;;;;;;10.17;5.23;;;10.30;97.30;;;;;;5021776;28;20430;-85
2023/03/20 06:58:16;;;;;;;16.10;5.03;;;10.30;97.30;;;;;;5011849;28;20446;-85
2023/03/20 07:00:48;;;;;;;11.87;8.43;;;10.40;97.30;;;;;;5019512;28;20495;-85
2023/03/20 07:03:16;;;;;;;10.97;5.50;;;10.40;97.30;;;;;;5013862;28;20415;-85
2023/03/20 07:05:57;;;;;;;12.97;6.87;;;10.40;97.30;;;;;;5015497;28;20430;-85
2023/03/20 07:08:57;;;;;;;8.30;5.40;;;10.40;97.30;;;;;;5023925;28;20954;-85
2023/03/20 07:12:19;;;;;;;4.10;3.47;;;10.30;97.30;;;;;;4999462;28;20825;-85
2023/03/20 07:14:47;;;;;;;3.53;2.20;;;10.30;97.30;;;;;;4955080;28;20427;-84
2023/03/20 07:17:56;;;;;;;9.63;5.50;;;10.30;97.30;;;;;;4935810;29;20509;-86
2023/03/20 07:20:57;;;;;;;17.23;6.87;;;10.30;97.30;;;;;;4938447;28;20852;-85
2023/03/20 07:23:35;;;;;;;5.57;4.60;;;10.30;97.30;;;;;;4935805;29;20940;-86
2023/03/20 07:26:00;;;;;;;5.50;4.00;;;10.40;97.30;;;;;;4997885;28;20422;-86
2023/03/20 07:28:26;;;;;;;12.80;3.67;;;10.40;97.30;;;;;;5024100;28;20986;-86
2023/03/20 07:30:54;;;;;;;3.50;1.97;;;10.30;97.30;;;;;;5028926;28;20643;-86
2023/03/20 07:33:19;;;;;;;3.90;3.70;;;10.30;97.30;;;;;;5034156;28;20294;-85
2023/03/20 07:35:45;;;;;;;4.83;3.27;;;10.40;97.30;;;;;;5017513;28;20513;-86
2023/03/20 07:38:11;;;;;;;4.80;3.70;;;10.30;97.30;;;;;;5015204;28;20235;-86
2023/03/20 07:40:36;;;;;;;9.70;3.27;;;10.30;97.30;;;;;;5015149;28;20659;-86
2023/03/20 07:43:03;;;;;;;5.03;3.10;;;10.30;97.30;;;;;;5016035;28;20240;-86
2023/03/20 07:45:28;;;;;;;6.23;3.80;;;10.30;97.30;;;;;;5018493;28;20181;-86
2023/03/20 07:47:54;;;;;;;6.10;3.73;;;10.40;97.30;;;;;;5026736;28;20950;-86
2023/03/20 07:50:19;;;;;;;12.33;4.60;;;10.40;97.30;;;;;;5027179;28;20220;-86
2023/03/20 07:52:46;;;;;;;9.13;4.80;;;10.40;97.30;;;;;;5016345;28;20183;-86
2023/03/20 07:55:12;;;;;;;8.17;5.90;;;10.40;97.30;;;;;;5014598;28;20423;-86
2023/03/20 07:57:37;;;;;;;17.57;4.87;;;10.40;97.30;;;;;;5015139;28;20439;-86
2023/03/20 08:00:04;;;;;;;5.90;5.03;;;10.50;97.30;;;;;;5013767;28;20185;-86
2023/03/20 08:02:29;;;;;;;8.03;4.77;;;10.70;97.30;;;;;;5028411;28;20209;-86
2023/03/20 08:04:55;;;;;;;10.33;6.40;;;10.80;97.30;;;;;;5015882;28;20938;-86
2023/03/20 08:07:20;;;;;;;19.30;8.77;;;10.90;97.30;;;;;;5015143;28;20217;-86
2023/03/20 08:09:46;;;;;;;12.57;4.43;;;10.90;97.30;;;;;;5015555;28;20262;-86
2023/03/20 08:12:11;;;;;;;6.50;4.57;;;10.90;97.30;;;;;;5011288;28;20191;-85
2023/03/20 08:14:38;;;;;;;15.87;7.20;;;11.00;97.30;;;;;;5015262;28;20184;-86
2023/03/20 08:17:04;;;;;;;18.50;8.37;;;11.00;97.30;;;;;;5010648;28;20176;-85
2023/03/20 08:19:30;;;;;;;9.57;5.07;;;11.00;97.30;;;;;;5031581;28;20514;-86
2023/03/20 08:21:55;;;;;;;8.30;7.60;;;11.10;97.30;;;;;;5014073;28;20279;-86
2023/03/20 08:24:24;;;;;;;19.57;6.60;;;11.10;97.30;;;;;;5014420;28;20177;-86
2023/03/20 08:26:50;;;;;;;28.67;12.33;;;11.10;97.30;;;;;;5024129;28;20667;-86
2023/03/20 08:29:18;;;;;;;13.13;8.23;;;11.20;97.30;;;;;;5032037;28;20435;-85
2023/03/20 08:31:43;;;;;;;16.20;6.90;;;11.30;97.30;;;;;;5014188;28;20419;-86
2023/03/20 08:34:09;;;;;;;18.67;7.40;;;11.40;97.30;;;;;;5013290;28;20419;-86
2023/03/20 08:36:35;;;;;;;16.30;9.80;;;11.40;97.30;;;;;;5013927;28;20208;-86
2023/03/20 08:39:00;;;;;;;10.57;9.60;;;11.40;97.30;;;;;;5013171;28;20323;-86
2023/03/20 08:41:26;;;;;;;17.90;8.97;;;11.40;97.30;;;;;;5012302;28;20216;-86
2023/03/20 08:43:51;;;;;;;16.17;7.63;;;11.30;97.30;;;;;;5013936;28;20465;-86
2023/03/20 08:46:17;;;;;;;12.60;9.60;;;11.30;97.30;;;;;;5012153;28;20184;-86
2023/03/20 08:48:42;;;;;;;17.27;8.97;;;11.30;97.30;;;;;;4999685;28;20196;-86
2023/03/20 08:51:08;;;;;;;11.17;7.33;;;11.30;97.30;;;;;;5014284;28;20188;-86
2023/03/20 08:53:34;;;;;;;18.40;8.60;;;11.30;97.30;;;;;;5013874;28;20569;-86
2023/03/20 08:56:00;;;;;;;15.37;9.00;;;11.30;97.30;;;;;;5013573;28;20558;-86
2023/03/20 08:58:26;;;;;;;13.40;6.97;;;11.20;97.30;;;;;;5013081;28;20200;-86
2023/03/20 09:00:53;;;;;;;11.77;7.83;;;11.20;97.30;;;;;;5011683;28;20542;-85
2023/03/20 09:03:20;;;;;;;10.60;9.20;;;11.10;97.30;;;;;;5003314;28;20424;-86
2023/03/20 09:05:47;;;;;;;13.30;7.87;;;11.10;97.30;;;;;;5031731;28;20418;-85
2023/03/20 09:08:13;;;;;;;8.93;5.10;;;11.10;97.30;;;;;;5013386;28;20489;-86
2023/03/20 09:10:39;;;;;;;10.87;7.40;;;11.10;97.30;;;;;;5009264;28;20439;-85
2023/03/20 09:13:05;;;;;;;9.00;5.87;;;11.20;97.30;;;;;;5012982;28;20993;-85
2023/03/20 09:15:31;;;;;;;17.17;5.50;;;11.20;97.30;;;;;;5013272;28;20212;-86
2023/03/20 09:17:56;;;;;;;11.90;7.73;;;11.10;97.30;;;;;;5013269;28;20442;-86
2023/03/20 09:20:22;;;;;;;13.07;6.17;;;11.10;97.30;;;;;;5013361;28;20202;-86
2023/03/20 09:22:48;;;;;;;11.33;7.23;;;11.10;97.30;;;;;;5013292;28;20234;-85
2023/03/20 09:25:13;;;;;;;16.90;10.07;;;11.10;97.30;;;;;;5013103;28;20173;-86
2023/03/20 09:27:39;;;;;;;12.73;6.47;;;11.00;97.30;;;;;;4999797;28;20223;-85
2023/03/20 09:30:06;;;;;;;16.90;8.33;;;11.00;97.30;;;;;;5013141;28;20548;-85
2023/03/20 09:32:33;;;;;;;10.80;6.80;;;10.90;97.30;;;;;;5013245;28;20422;-86
2023/03/20 09:35:00;;;;;;;5.90;5.07;;;10.90;97.30;;;;;;5012790;28;20427;-85
2023/03/20 09:37:29;;;;;;;10.73;4.93;;;10.90;97.30;;;;;;5022470;22;21044;-85
2023/03/20 09:47:07;;;;;;;20.00;6.00;;;10.90;97.30;;;;;;4977124;28;20463;-85
2023/03/20 09:50:08;;;;;;;19.00;12.30;;;10.90;97.30;;;;;;4978690;28;20465;-84
2023/03/20 09:53:07;;;;;;;19.73;8.07;;;10.90;97.30;;;;;;4969734;28;20442;-85
2023/03/20 09:55:44;;;;;;;20.67;7.70;;;10.90;97.30;;;;;;5004852;28;20418;-85
2023/03/20 09:58:32;;;;;;;18.77;8.23;;;11.00;97.30;;;;;;5043310;28;20452;-85
2023/03/20 10:01:00;;;;;;;16.00;7.37;;;11.00;97.30;;;;;;5047168;28;20461;-86
2023/03/20 10:03:41;;;;;;;13.10;6.83;;;11.00;97.30;;;;;;5044787;28;20428;-85
2023/03/20 10:06:12;;;;;;;9.93;6.70;;;11.00;97.30;;;;;;5045016;28;20418;-85
2023/03/20 10:08:38;;;;;;;29.70;7.97;;;11.00;97.30;;;;;;5054556;28;20495;-86
2023/03/20 10:11:03;;;;;;;21.40;7.67;;;11.00;97.30;;;;;;5040655;28;20429;-85
2023/03/20 10:13:57;;;;;;;9.10;6.00;;;11.00;97.30;;;;;;5051381;28;20226;-86
2023/03/20 10:16:28;;;;;;;17.77;7.40;;;11.10;97.30;;;;;;5043754;28;20198;-85
2023/03/20 10:19:06;;;;;;;10.30;6.77;;;11.10;97.30;;;;;;5052474;28;20971;-86
2023/03/20 10:21:47;;;;;;;9.63;5.60;;;11.10;97.30;;;;;;5045749;28;20461;-86
2023/03/20 10:24:26;;;;;;;11.60;8.37;;;11.10;97.30;;;;;;5062322;28;20479;-86
2023/03/20 10:26:54;;;;;;;19.63;6.07;;;11.10;97.30;;;;;;5037354;28;20431;-85
2023/03/20 10:29:33;;;;;;;12.27;6.97;;;11.20;97.30;;;;;;5047898;28;20433;-85
2023/03/20 10:32:18;;;;;;;16.63;8.93;;;11.20;97.30;;;;;;5048910;28;20516;-86
2023/03/20 10:35:06;;;;;;;24.77;6.10;;;11.20;97.30;;;;;;5061616;28;20428;-86
2023/03/20 10:38:05;;;;;;;16.50;6.83;;;11.20;97.30;;;;;;5048291;28;20520;-85
2023/03/20 10:40:36;;;;;;;10.60;7.87;;;11.20;97.30;;;;;;5063917;28;20414;-85
2023/03/20 10:43:10;;;;;;;12.37;8.60;;;11.20;97.30;;;;;;5051665;28;20452;-86
2023/03/20 10:45:41;;;;;;;17.33;7.80;;;11.20;97.30;;;;;;5044049;28;20439;-86
2023/03/20 10:48:19;;;;;;;9.47;6.40;;;11.20;97.30;;;;;;5048668;28;20517;-85
2023/03/20 10:50:50;;;;;;;25.47;9.70;;;11.20;97.30;;;;;;5040306;28;20649;-85
2023/03/20 10:53:29;;;;;;;35.17;9.23;;;11.20;97.30;;;;;;5039988;28;20413;-86
2023/03/20 10:55:59;;;;;;;10.40;7.33;;;11.20;97.30;;;;;;5037007;28;20532;-85
2023/03/20 10:58:29;;;;;;;12.00;7.20;;;11.20;97.30;;;;;;5066424;28;20959;-86
2023/03/20 11:00:56;;;;;;;11.70;8.10;;;11.20;97.30;;;;;;5053136;28;20460;-86
2023/03/20 11:03:28;;;;;;;18.43;9.63;;;11.30;97.30;;;;;;5046468;28;20413;-86
2023/03/20 11:06:00;;;;;;;23.53;8.77;;;11.30;97.30;;;;;;5054537;28;20478;-86
2023/03/20 11:08:34;;;;;;;15.53;9.47;;;11.20;97.30;;;;;;5041984;28;20520;-86
2023/03/20 11:11:00;;;;;;;11.67;8.63;;;11.20;97.30;;;;;;5048559;28;20451;-86
2023/03/20 11:13:26;;;;;;;25.80;10.10;;;11.20;97.30;;;;;;5055116;28;20423;-86
2023/03/20 11:15:54;;;;;;;17.10;6.17;;;11.20;97.30;;;;;;5055052;28;20500;-86
2023/03/20 11:18:22;;;;;;;20.00;10.30;;;11.20;97.30;;;;;;5052230;28;20504;-86
2023/03/20 11:20:54;;;;;;;14.07;6.50;;;11.10;97.30;;;;;;5051015;28;20425;-86
2023/03/20 11:23:26;;;;;;;18.93;7.33;;;11.10;97.30;;;;;;5055503;28;20413;-86
2023/03/20 11:26:20;;;;;;;11.27;9.20;;;11.10;97.30;;;;;;5055149;28;20425;-86
2023/03/20 11:28:47;;;;;;;17.10;7.47;;;11.10;97.30;;;;;;5052221;28;20474;-86
2023/03/20 11:31:12;;;;;;;15.17;8.97;;;11.10;97.30;;;;;;5035578;28;20464;-86
2023/03/20 11:33:41;;;;;;;14.67;6.00;;;11.10;97.30;;;;;;5071778;28;20504;-85
2023/03/20 11:36:25;;;;;;;10.30;6.37;;;11.10;97.30;;;;;;5048121;28;20285;-86
2023/03/20 11:38:56;;;;;;;16.73;9.50;;;11.10;97.30;;;;;;5047549;28;20544;-86
2023/03/20 11:41:25;;;;;;;7.83;4.83;;;11.10;97.30;;;;;;5050028;28;21046;-87
2023/03/20 11:43:51;;;;;;;26.20;9.57;;;11.10;97.30;;;;;;5033276;28;20615;-86
2023/03/20 11:46:21;;;;;;;11.63;9.83;;;11.10;97.30;;;;;;5042047;28;20984;-87
2023/03/20 11:49:05;;;;;;;8.10;7.47;;;11.20;97.30;;;;;;5037447;28;20288;-86
2023/03/20 11:51:32;;;;;;;13.23;10.60;;;11.20;97.30;;;;;;5053983;28;20421;-86
2023/03/20 11:54:04;;;;;;;17.67;7.80;;;11.10;97.30;;;;;;5049191;28;20422;-86
2023/03/20 11:56:32;;;;;;;13.17;8.40;;;11.10;97.30;;;;;;5039622;28;20525;-87
2023/03/20 11:59:14;;;;;;;14.30;7.20;;;11.10;97.30;;;;;;5072761;28;20440;-86
2023/03/20 12:01:45;;;;;;;12.63;8.23;;;11.10;97.30;;;;;;5047183;28;20466;-86
2023/03/20 12:04:19;;;;;;;9.40;8.63;;;11.10;97.30;;;;;;5065130;28;20418;-86
2023/03/20 12:07:09;;;;;;;13.77;7.87;;;11.20;97.30;;;;;;5044892;28;20425;-87
2023/03/20 12:09:44;;;;;;;31.47;11.03;;;11.20;97.30;;;;;;5052259;28;20940;-86
2023/03/20 12:12:40;;;;;;;11.10;7.63;;;11.20;97.30;;;;;;5048865;28;20436;-86
2023/03/20 12:15:24;;;;;;;20.73;11.63;;;11.20;97.30;;;;;;5044630;28;20910;-86
2023/03/20 12:18:03;;;;;;;19.30;10.00;;;11.20;97.30;;;;;;5051218;28;20628;-86
2023/03/20 12:20:38;;;;;;;9.80;6.27;;;11.30;97.30;;;;;;5066732;28;20429;-86
2023/03/20 12:23:55;;;;;;;8.70;6.00;;;11.40;97.30;;;;;;5049876;28;20437;-86
2023/03/20 12:26:27;;;;;;;22.70;9.20;;;11.40;97.30;;;;;;5027184;28;20422;-86
2023/03/20 12:29:11;;;;;;;17.80;7.40;;;11.40;97.30;;;;;;5059814;28;20516;-85
2023/03/20 12:31:45;;;;;;;13.00;6.90;;;11.50;97.30;;;;;;5070215;28;20424;-87
2023/03/20 12:34:41;;;;;;;10.77;7.47;;;11.50;97.30;;;;;;5054070;28;20728;-87
2023/03/20 12:37:10;;;;;;;8.07;7.03;;;11.50;97.30;;;;;;5067385;28;20418;-86
2023/03/20 12:39:44;;;;;;;20.93;7.77;;;11.50;97.30;;;;;;5053134;28;20433;-86
2023/03/20 12:42:35;;;;;;;11.47;8.90;;;11.50;97.30;;;;;;5072172;28;20776;-86
2023/03/20 12:45:17;;;;;;;19.17;10.17;;;11.50;97.30;;;;;;5057590;28;20419;-87
2023/03/20 12:48:17;;;;;;;10.03;6.17;;;11.50;97.30;;;;;;5046165;28;20858;-87
2023/03/20 12:51:00;;;;;;;17.23;10.57;;;11.60;97.30;;;;;;5039474;28;20417;-86
2023/03/20 12:53:43;;;;;;;21.20;7.30;;;11.60;97.30;;;;;;5054113;28;20993;-86
2023/03/20 12:56:21;;;;;;;15.67;8.00;;;11.60;97.30;;;;;;5045136;28;20476;-86
2023/03/20 12:58:51;;;;;;;15.40;8.80;;;11.60;97.30;;;;;;5064565;28;20495;-86
2023/03/20 13:01:27;;;;;;;15.10;8.07;;;11.50;97.30;;;;;;5064873;28;20543;-87
2023/03/20 13:04:42;;;;;;;14.67;6.07;;;11.50;97.30;;;;;;5052467;28;20428;-86
2023/03/20 13:07:41;;;;;;;22.23;7.47;;;11.40;97.30;;;;;;5044851;28;20986;-85
2023/03/20 13:10:30;;;;;;;10.70;5.70;;;11.40;97.30;;;;;;5047516;28;20417;-86
2023/03/20 13:13:14;;;;;;;14.00;6.70;;;11.40;97.30;;;;;;5051764;28;20417;-86
2023/03/20 13:15:53;;;;;;;21.03;8.40;;;11.40;97.30;;;;;;5049503;28;20497;-87
2023/03/20 13:18:57;;;;;;;12.70;6.30;;;11.40;97.30;;;;;;5049109;28;20502;-86
2023/03/20 13:22:06;;;;;;;12.43;6.10;;;11.40;97.30;;;;;;5049238;28;20485;-86
2023/03/20 13:24:49;;;;;;;18.03;8.73;;;11.40;97.30;;;;;;5011962;28;20421;-86
2023/03/20 13:27:34;;;;;;;18.80;7.63;;;11.50;97.30;;;;;;5049384;28;20935;-87